Hlavní strana
METAR-TAF:

METAR-TAF

Letiště :

Resolute, Nunavut, Kanada

zeměpisná šířka: 74-43N, zeměpisná délka: 094-59W, výška: 67 m

Aktuální stav počasí

Zpráva byla vytvořena před 30 minutami, v 13:00 UTC
Severozápadní vítr 9 kt
Teplota -27°C
Vlhkost vzduchu 69%
Tlak 1011 hPa
Viditelnost: 8.0 km
Polojasno ve výšce 6200 ft
Zataženo ve výšce 8000 ft
slabé sněžení

METAR: CYRB 231300Z 31009KT 5SM -SN SCT062 OVC080 M27/M31 A2986 RMK SC4AC4 SLP124

Čas: 08:30 (13:30 UTC)

Předpověď počasí

Zpráva byla vytvořena před 1 hodinou a 52 minutami, v 11:38 UTC
Předpověď platná od 23 v 12 UTC do 24 v 12 UTC
Severozápadní vítr 15 kt
Viditelnost: 10 km
Skoro jasno ve výšce 4000 ft
Oblačno až skoro zataženo ve výšce 8000 ft
ledové krystalky
Dočasný
od 23 v 12 UTC do 24 v 12 UTC
Viditelnost: 6.4 km
Oblačno až skoro zataženo ve výšce 4000 ft
Zataženo ve výšce 8000 ft
slabé sněžení

TAF: CYRB 231138Z 2312/2412 32015KT P6SM IC FEW040 BKN080 TEMPO 2312/2412 4SM -SN BKN040 OVC080 RMK NXT FCST BY 231800Z

Stav a předpovědi počasí z více než 4 000 letišť (zprávy METAR a TAF).

Červené a žluté tečky na mapě představují dostupné meteorologické stanice.

Když kurzor umístíte na tečku, zobrazí se název stanice.

Pak kliknutím zobrazíte stav a předpověď počasí.

Chcete-li změnit mapu, kliknutím na zelené tlačítko se znaménkem +mapu přiblížíte, kliknutím na zelené tlačítko se znaménkem – mapu oddálíte a kliknutím na zelené šipky přejdete na sousední mapy.


METAR-TAF: